Aviation Digital Data Service (ADDS)

Output produced by METARs form (1324 UTC 07 October 2022)
found at http://www.aviationweather.gov/metar/data/
 
VTSB 071300Z 00000KT 9999 FEW020 24/24 Q1011 NOSIG
VTSB 071200Z 00000KT 9999 FEW020 SCT100 24/24 Q1010 NOSIG
VTSB 071100Z 29001KT 9999 FEW020 SCT100 24/24 Q1009 NOSIG
VTSB 071000Z 26004KT 9999 -RA FEW020 BKN100 24/24 Q1009 NOSIG
VTSB 070900Z 23006KT 9000 -RA FEW010 BKN100 24/24 Q1008 RETS NOSIG
VTSB 070800Z 00000KT 6000 -TSRA FEW018CB SCT020 BKN100 23/23 Q1009 RERA NOSIG
VTSB 070700Z 06009KT 030V090 9000 2000N -RA FEW018CB SCT020 28/25 Q1008 NOSIG
VTSB 070600Z 00000KT 9999 FEW018CB SCT020 31/25 Q1009 NOSIG
VTSB 070500Z 05003KT 340V110 9999 SCT020 30/29 Q1010 NOSIG
VTSB 070400Z 00000KT 9999 -RA SCT020 BKN100 26/26 Q1011 NOSIG
VTSB 070300Z 00000KT 7000 -RA FEW018 BKN100 25/25 Q1012 NOSIG
VTSB 070200Z 20001KT 7000 -RA FEW010 BKN100 24/24 Q1012 NOSIG
VTSB 070100Z 00000KT 6000 -RA SCT010 BKN100 24/24 Q1011 NOSIG
VTSB 070000Z 00000KT 0800 R22///// -RA FG OVC005 24/24 Q1010 BECMG TL0030 1500 BR
VTSB 062300Z 00000KT 0800 R22///// FG OVC005 24/24 Q1009 BECMG TL0020 1500 BR
VTSB 062200Z 00000KT 0800 R22///// FG OVC005 24/24 Q1009 BECMG 1500 BR
VTSB 061500Z 00000KT 9999 FEW020 25/25 Q1011 NOSIG
VTSB 061400Z 25001KT 9999 FEW020 SCT100 26/25 Q1010 NOSIG
TAF VTSB 071100Z 0712/0812 00000KT 9999 SCT020 SCT100 
     TEMPO 0712/0715 4000 RA 
     BECMG 0721/0723 0800 FG BKN005 
     BECMG 0802/0804 07008KT 9999 NSW FEW020 
     TEMPO 0806/0812 VRB15G25KT 3000 TSRA FEW016CB SCT018 BKN100